sensor_id;sensor_type;location;lat;lon;timestamp;pressure;altitude;pressure_sealevel;temperature;humidity
84483;BME280;74703;51.284;22.590;2024-01-11T00:00:42;100298.31;;;-6.94;55.06
84483;BME280;74703;51.284;22.590;2024-01-11T00:05:43;100264.06;;;-7.08;55.32
84483;BME280;74703;51.284;22.590;2024-01-11T00:10:44;100260.16;;;-7.00;55.00
84483;BME280;74703;51.284;22.590;2024-01-11T00:15:44;100271.34;;;-6.94;56.09
84483;BME280;74703;51.284;22.590;2024-01-11T00:20:45;100235.72;;;-7.00;55.82
84483;BME280;74703;51.284;22.590;2024-01-11T00:25:46;100237.50;;;-6.97;56.86
84483;BME280;74703;51.284;22.590;2024-01-11T00:30:46;100219.16;;;-6.92;56.44
84483;BME280;74703;51.284;22.590;2024-01-11T00:35:47;100202.50;;;-7.09;57.01
84483;BME280;74703;51.284;22.590;2024-01-11T00:40:47;100225.38;;;-6.82;57.19
84483;BME280;74703;51.284;22.590;2024-01-11T00:45:49;100202.16;;;-6.96;57.63
84483;BME280;74703;51.284;22.590;2024-01-11T00:50:49;100181.19;;;-6.92;57.70
84483;BME280;74703;51.284;22.590;2024-01-11T00:55:51;100174.13;;;-7.02;58.45
84483;BME280;74703;51.284;22.590;2024-01-11T01:00:52;100174.75;;;-6.83;58.36
84483;BME280;74703;51.284;22.590;2024-01-11T01:05:53;100147.75;;;-6.83;59.11
84483;BME280;74703;51.284;22.590;2024-01-11T01:10:53;100133.78;;;-6.72;58.50
84483;BME280;74703;51.284;22.590;2024-01-11T01:15:54;100146.16;;;-6.54;58.92
84483;BME280;74703;51.284;22.590;2024-01-11T01:20:56;100159.44;;;-6.61;59.26
84483;BME280;74703;51.284;22.590;2024-01-11T01:25:56;100194.72;;;-6.40;59.50
84483;BME280;74703;51.284;22.590;2024-01-11T01:30:57;100173.50;;;-6.43;59.42
84483;BME280;74703;51.284;22.590;2024-01-11T01:35:57;100176.34;;;-6.34;59.20
84483;BME280;74703;51.284;22.590;2024-01-11T01:40:58;100154.19;;;-6.40;59.12
84483;BME280;74703;51.284;22.590;2024-01-11T01:45:58;100140.31;;;-6.53;58.88
84483;BME280;74703;51.284;22.590;2024-01-11T01:50:59;100145.19;;;-6.57;60.33
84483;BME280;74703;51.284;22.590;2024-01-11T01:56:00;100150.63;;;-6.47;59.23
84483;BME280;74703;51.284;22.590;2024-01-11T02:01:00;100166.41;;;-6.27;59.53
84483;BME280;74703;51.284;22.590;2024-01-11T02:06:02;100147.16;;;-6.23;60.76
84483;BME280;74703;51.284;22.590;2024-01-11T02:11:05;100141.63;;;-6.10;59.91
84483;BME280;74703;51.284;22.590;2024-01-11T02:16:06;100126.28;;;-5.84;60.37
84483;BME280;74703;51.284;22.590;2024-01-11T02:21:09;100126.19;;;-5.87;60.47
84483;BME280;74703;51.284;22.590;2024-01-11T02:26:15;100137.59;;;-5.73;60.34
84483;BME280;74703;51.284;22.590;2024-01-11T02:31:16;100135.38;;;-5.62;59.31
84483;BME280;74703;51.284;22.590;2024-01-11T02:36:17;100104.47;;;-5.79;61.14
84483;BME280;74703;51.284;22.590;2024-01-11T02:41:18;100087.91;;;-5.68;60.55
84483;BME280;74703;51.284;22.590;2024-01-11T02:46:19;100107.16;;;-5.44;61.09
84483;BME280;74703;51.284;22.590;2024-01-11T02:51:19;100081.63;;;-5.50;60.54
84483;BME280;74703;51.284;22.590;2024-01-11T02:56:20;100041.66;;;-5.59;61.48
84483;BME280;74703;51.284;22.590;2024-01-11T03:01:21;100014.50;;;-5.63;61.41
84483;BME280;74703;51.284;22.590;2024-01-11T03:06:21;100032.47;;;-5.54;61.32
84483;BME280;74703;51.284;22.590;2024-01-11T03:11:22;100042.34;;;-5.65;62.16
84483;BME280;74703;51.284;22.590;2024-01-11T03:16:23;100018.53;;;-5.71;62.08
84483;BME280;74703;51.284;22.590;2024-01-11T03:21:23;100003.25;;;-5.73;62.16
84483;BME280;74703;51.284;22.590;2024-01-11T03:26:24;100009.41;;;-5.65;61.89
84483;BME280;74703;51.284;22.590;2024-01-11T03:31:25;100010.09;;;-5.69;62.41
84483;BME280;74703;51.284;22.590;2024-01-11T03:36:25;99981.28;;;-5.74;62.47
84483;BME280;74703;51.284;22.590;2024-01-11T03:41:26;100020.06;;;-5.77;63.07
84483;BME280;74703;51.284;22.590;2024-01-11T03:46:26;100008.56;;;-5.64;63.44
84483;BME280;74703;51.284;22.590;2024-01-11T03:51:27;99987.88;;;-5.79;63.77
84483;BME280;74703;51.284;22.590;2024-01-11T03:56:28;99967.16;;;-5.97;63.60
84483;BME280;74703;51.284;22.590;2024-01-11T04:01:28;99976.72;;;-6.19;63.91
84483;BME280;74703;51.284;22.590;2024-01-11T04:06:29;99975.38;;;-6.06;62.92
84483;BME280;74703;51.284;22.590;2024-01-11T04:11:29;99999.16;;;-6.01;63.26
84483;BME280;74703;51.284;22.590;2024-01-11T04:16:30;99973.16;;;-6.26;63.77
84483;BME280;74703;51.284;22.590;2024-01-11T04:21:31;99993.59;;;-6.19;63.90
84483;BME280;74703;51.284;22.590;2024-01-11T04:26:31;99964.63;;;-6.29;62.84
84483;BME280;74703;51.284;22.590;2024-01-11T04:31:32;99980.50;;;-6.35;64.14
84483;BME280;74703;51.284;22.590;2024-01-11T04:36:33;99985.78;;;-6.56;65.72
84483;BME280;74703;51.284;22.590;2024-01-11T04:41:38;99961.81;;;-6.67;65.21
84483;BME280;74703;51.284;22.590;2024-01-11T04:46:38;99967.06;;;-6.61;65.73
84483;BME280;74703;51.284;22.590;2024-01-11T04:51:39;99975.25;;;-6.41;64.23
84483;BME280;74703;51.284;22.590;2024-01-11T04:56:39;99967.06;;;-6.32;64.07
84483;BME280;74703;51.284;22.590;2024-01-11T05:01:40;99935.25;;;-6.53;65.60
84483;BME280;74703;51.284;22.590;2024-01-11T05:06:42;99963.22;;;-6.18;64.52
84483;BME280;74703;51.284;22.590;2024-01-11T05:11:42;99957.63;;;-6.36;64.94
84483;BME280;74703;51.284;22.590;2024-01-11T05:16:43;99976.91;;;-6.11;65.92
84483;BME280;74703;51.284;22.590;2024-01-11T05:21:45;99971.91;;;-6.08;65.68
84483;BME280;74703;51.284;22.590;2024-01-11T05:26:45;99950.44;;;-6.23;65.65
84483;BME280;74703;51.284;22.590;2024-01-11T05:31:46;99959.81;;;-6.20;66.92
84483;BME280;74703;51.284;22.590;2024-01-11T05:36:46;99983.97;;;-6.01;66.24
84483;BME280;74703;51.284;22.590;2024-01-11T05:41:47;99957.44;;;-6.14;67.81
84483;BME280;74703;51.284;22.590;2024-01-11T05:46:48;99966.38;;;-5.95;67.94
84483;BME280;74703;51.284;22.590;2024-01-11T05:51:49;99972.06;;;-5.70;69.17
84483;BME280;74703;51.284;22.590;2024-01-11T05:56:49;99954.16;;;-5.43;68.21
84483;BME280;74703;51.284;22.590;2024-01-11T06:01:56;99933.22;;;-5.35;68.27
84483;BME280;74703;51.284;22.590;2024-01-11T06:07:00;99910.56;;;-5.27;68.22
84483;BME280;74703;51.284;22.590;2024-01-11T06:12:01;99929.63;;;-5.08;68.45
84483;BME280;74703;51.284;22.590;2024-01-11T06:17:02;99899.84;;;-5.17;68.52
84483;BME280;74703;51.284;22.590;2024-01-11T06:22:03;99896.19;;;-5.28;69.06
84483;BME280;74703;51.284;22.590;2024-01-11T06:27:04;99895.03;;;-5.04;68.74
84483;BME280;74703;51.284;22.590;2024-01-11T06:32:05;99872.72;;;-5.19;68.55
84483;BME280;74703;51.284;22.590;2024-01-11T06:37:06;99894.19;;;-5.05;69.11
84483;BME280;74703;51.284;22.590;2024-01-11T06:42:06;99889.03;;;-5.08;68.61
84483;BME280;74703;51.284;22.590;2024-01-11T06:47:07;99868.34;;;-5.25;69.20
84483;BME280;74703;51.284;22.590;2024-01-11T06:52:08;99873.81;;;-5.07;68.66
84483;BME280;74703;51.284;22.590;2024-01-11T06:57:08;99901.09;;;-4.96;68.69
84483;BME280;74703;51.284;22.590;2024-01-11T07:02:09;99859.25;;;-5.17;68.87
84483;BME280;74703;51.284;22.590;2024-01-11T07:07:09;99852.69;;;-5.07;68.35
84483;BME280;74703;51.284;22.590;2024-01-11T07:12:10;99866.28;;;-5.03;68.35
84483;BME280;74703;51.284;22.590;2024-01-11T07:17:10;99874.19;;;-4.90;68.23
84483;BME280;74703;51.284;22.590;2024-01-11T07:22:11;99831.47;;;-5.09;69.16
84483;BME280;74703;51.284;22.590;2024-01-11T07:27:11;99814.50;;;-5.13;69.48
84483;BME280;74703;51.284;22.590;2024-01-11T07:32:12;99842.13;;;-4.86;70.12
84483;BME280;74703;51.284;22.590;2024-01-11T07:37:12;99819.03;;;-4.98;70.73
84483;BME280;74703;51.284;22.590;2024-01-11T07:42:14;99855.19;;;-4.68;70.66
84483;BME280;74703;51.284;22.590;2024-01-11T07:47:14;99821.81;;;-4.85;70.78
84483;BME280;74703;51.284;22.590;2024-01-11T07:52:15;99829.69;;;-4.74;70.55
84483;BME280;74703;51.284;22.590;2024-01-11T07:57:15;99838.97;;;-4.74;70.46
84483;BME280;74703;51.284;22.590;2024-01-11T08:02:16;99814.06;;;-4.92;71.55
84483;BME280;74703;51.284;22.590;2024-01-11T08:07:17;99843.28;;;-4.70;71.24
84483;BME280;74703;51.284;22.590;2024-01-11T08:12:17;99849.28;;;-4.67;72.00
84483;BME280;74703;51.284;22.590;2024-01-11T08:17:18;99846.91;;;-4.57;71.97
84483;BME280;74703;51.284;22.590;2024-01-11T08:22:19;99859.81;;;-4.47;71.97
84483;BME280;74703;51.284;22.590;2024-01-11T08:27:20;99847.69;;;-4.60;72.07
84483;BME280;74703;51.284;22.590;2024-01-11T08:32:20;99845.66;;;-4.35;71.85
84483;BME280;74703;51.284;22.590;2024-01-11T08:37:21;99837.22;;;-4.33;71.55
84483;BME280;74703;51.284;22.590;2024-01-11T08:42:21;99857.84;;;-4.16;71.43
84483;BME280;74703;51.284;22.590;2024-01-11T08:47:22;99854.34;;;-4.23;71.80
84483;BME280;74703;51.284;22.590;2024-01-11T08:52:22;99860.63;;;-4.04;72.40
84483;BME280;74703;51.284;22.590;2024-01-11T08:57:23;99841.72;;;-4.18;72.41
84483;BME280;74703;51.284;22.590;2024-01-11T09:02:24;99884.69;;;-3.83;71.81
84483;BME280;74703;51.284;22.590;2024-01-11T09:07:25;99872.41;;;-4.07;71.76
84483;BME280;74703;51.284;22.590;2024-01-11T09:12:25;99854.75;;;-4.00;73.05
84483;BME280;74703;51.284;22.590;2024-01-11T09:17:26;99866.59;;;-4.02;73.00
84483;BME280;74703;51.284;22.590;2024-01-11T09:22:26;99858.81;;;-4.09;73.64
84483;BME280;74703;51.284;22.590;2024-01-11T09:27:28;99845.56;;;-3.92;73.75
84483;BME280;74703;51.284;22.590;2024-01-11T09:32:28;99845.56;;;-3.93;73.61
84483;BME280;74703;51.284;22.590;2024-01-11T09:37:29;99865.16;;;-3.84;74.11
84483;BME280;74703;51.284;22.590;2024-01-11T09:42:30;99838.53;;;-4.06;74.40
84483;BME280;74703;51.284;22.590;2024-01-11T09:47:31;99845.41;;;-4.02;75.39
84483;BME280;74703;51.284;22.590;2024-01-11T09:52:32;99841.38;;;-3.88;75.55
84483;BME280;74703;51.284;22.590;2024-01-11T09:57:35;99843.22;;;-3.81;75.94
84483;BME280;74703;51.284;22.590;2024-01-11T10:02:37;99837.38;;;-3.74;75.34
84483;BME280;74703;51.284;22.590;2024-01-11T10:07:38;99824.03;;;-3.60;75.87
84483;BME280;74703;51.284;22.590;2024-01-11T10:12:38;99814.59;;;-3.67;75.90
84483;BME280;74703;51.284;22.590;2024-01-11T10:17:43;99789.69;;;-3.88;77.54
84483;BME280;74703;51.284;22.590;2024-01-11T10:22:47;99797.38;;;-3.85;79.15
84483;BME280;74703;51.284;22.590;2024-01-11T10:27:48;99771.75;;;-3.99;79.89
84483;BME280;74703;51.284;22.590;2024-01-11T10:32:49;99764.59;;;-3.67;79.66
84483;BME280;74703;51.284;22.590;2024-01-11T10:37:51;99764.75;;;-3.56;79.00
84483;BME280;74703;51.284;22.590;2024-01-11T10:42:59;99767.47;;;-3.42;78.41
84483;BME280;74703;51.284;22.590;2024-01-11T10:48:02;99756.44;;;-3.44;78.77
84483;BME280;74703;51.284;22.590;2024-01-11T10:58:34;99754.94;;;-3.29;77.52
84483;BME280;74703;51.284;22.590;2024-01-11T11:03:36;99752.38;;;-3.32;77.31
84483;BME280;74703;51.284;22.590;2024-01-11T11:08:37;99715.94;;;-3.29;77.07
84483;BME280;74703;51.284;22.590;2024-01-11T11:13:38;99699.84;;;-3.27;76.20
84483;BME280;74703;51.284;22.590;2024-01-11T11:18:40;99713.59;;;-3.11;76.21
84483;BME280;74703;51.284;22.590;2024-01-11T11:23:40;99677.94;;;-3.12;76.34
84483;BME280;74703;51.284;22.590;2024-01-11T11:28:41;99708.41;;;-3.18;76.76
84483;BME280;74703;51.284;22.590;2024-01-11T11:33:41;99706.00;;;-3.06;78.08
84483;BME280;74703;51.284;22.590;2024-01-11T11:38:42;99707.78;;;-2.99;77.25
84483;BME280;74703;51.284;22.590;2024-01-11T11:43:42;99690.13;;;-2.84;76.62
84483;BME280;74703;51.284;22.590;2024-01-11T11:53:48;99665.53;;;-2.79;76.88
84483;BME280;74703;51.284;22.590;2024-01-11T11:58:49;99683.25;;;-2.91;77.32
84483;BME280;74703;51.284;22.590;2024-01-11T12:03:52;99676.31;;;-3.06;77.74
84483;BME280;74703;51.284;22.590;2024-01-11T12:08:53;99664.28;;;-3.20;78.61
84483;BME280;74703;51.284;22.590;2024-01-11T12:13:54;99663.19;;;-3.41;79.55
84483;BME280;74703;51.284;22.590;2024-01-11T12:18:57;99663.91;;;-3.53;80.34
84483;BME280;74703;51.284;22.590;2024-01-11T12:23:57;99654.63;;;-3.51;80.54
84483;BME280;74703;51.284;22.590;2024-01-11T12:28:58;99637.81;;;-3.35;79.81
84483;BME280;74703;51.284;22.590;2024-01-11T12:33:58;99652.19;;;-3.40;80.40
84483;BME280;74703;51.284;22.590;2024-01-11T12:38:59;99642.19;;;-3.22;79.53
84483;BME280;74703;51.284;22.590;2024-01-11T12:44:00;99642.09;;;-3.31;79.94
84483;BME280;74703;51.284;22.590;2024-01-11T12:49:01;99639.53;;;-3.34;80.33
84483;BME280;74703;51.284;22.590;2024-01-11T12:54:02;99639.66;;;-3.23;80.35
84483;BME280;74703;51.284;22.590;2024-01-11T12:59:05;99614.78;;;-3.47;79.71
84483;BME280;74703;51.284;22.590;2024-01-11T13:04:10;99612.28;;;-3.44;79.97
84483;BME280;74703;51.284;22.590;2024-01-11T13:09:11;99635.28;;;-3.35;80.50
84483;BME280;74703;51.284;22.590;2024-01-11T13:14:14;99624.22;;;-3.38;80.86
84483;BME280;74703;51.284;22.590;2024-01-11T13:19:19;99615.56;;;-3.51;81.57
84483;BME280;74703;51.284;22.590;2024-01-11T13:24:19;99628.38;;;-3.45;81.76
84483;BME280;74703;51.284;22.590;2024-01-11T13:29:21;99624.09;;;-3.49;82.88
84483;BME280;74703;51.284;22.590;2024-01-11T13:34:22;99601.22;;;-3.48;82.78
84483;BME280;74703;51.284;22.590;2024-01-11T13:39:25;99615.88;;;-3.25;82.19
84483;BME280;74703;51.284;22.590;2024-01-11T13:44:25;99585.31;;;-3.30;81.84
84483;BME280;74703;51.284;22.590;2024-01-11T13:49:29;99545.22;;;-3.49;81.81
84483;BME280;74703;51.284;22.590;2024-01-11T13:54:35;99539.22;;;-3.56;81.75
84483;BME280;74703;51.284;22.590;2024-01-11T13:59:45;99559.50;;;-3.60;82.00
84483;BME280;74703;51.284;22.590;2024-01-11T14:04:48;99560.44;;;-3.55;82.59
84483;BME280;74703;51.284;22.590;2024-01-11T14:09:49;99581.00;;;-3.34;83.34
84483;BME280;74703;51.284;22.590;2024-01-11T14:14:49;99602.22;;;-3.33;83.33
84483;BME280;74703;51.284;22.590;2024-01-11T14:19:53;99585.19;;;-3.40;83.33
84483;BME280;74703;51.284;22.590;2024-01-11T14:24:53;99606.56;;;-3.22;83.23
84483;BME280;74703;51.284;22.590;2024-01-11T14:29:54;99584.34;;;-3.39;83.61
84483;BME280;74703;51.284;22.590;2024-01-11T14:34:55;99557.19;;;-3.39;83.51
84483;BME280;74703;51.284;22.590;2024-01-11T14:39:55;99547.94;;;-3.34;83.77
84483;BME280;74703;51.284;22.590;2024-01-11T14:44:56;99585.44;;;-3.13;84.87
84483;BME280;74703;51.284;22.590;2024-01-11T14:49:58;99588.03;;;-3.11;84.70
84483;BME280;74703;51.284;22.590;2024-01-11T14:54:59;99589.69;;;-3.12;84.99
84483;BME280;74703;51.284;22.590;2024-01-11T14:59:59;99581.09;;;-3.26;85.70
84483;BME280;74703;51.284;22.590;2024-01-11T15:05:00;99604.22;;;-3.03;85.71
84483;BME280;74703;51.284;22.590;2024-01-11T15:10:00;99585.44;;;-3.16;85.57
84483;BME280;74703;51.284;22.590;2024-01-11T15:15:02;99626.41;;;-2.90;85.64
84483;BME280;74703;51.284;22.590;2024-01-11T15:20:06;99611.97;;;-2.91;85.56
84483;BME280;74703;51.284;22.590;2024-01-11T15:25:07;99602.56;;;-2.98;86.14
84483;BME280;74703;51.284;22.590;2024-01-11T15:30:08;99591.63;;;-2.88;86.41
84483;BME280;74703;51.284;22.590;2024-01-11T15:35:12;99599.34;;;-2.80;85.99
84483;BME280;74703;51.284;22.590;2024-01-11T15:40:12;99600.16;;;-2.84;86.55
84483;BME280;74703;51.284;22.590;2024-01-11T15:45:13;99631.69;;;-2.67;86.85
84483;BME280;74703;51.284;22.590;2024-01-11T15:50:13;99604.47;;;-2.74;86.23
84483;BME280;74703;51.284;22.590;2024-01-11T15:55:14;99627.53;;;-2.59;86.37
84483;BME280;74703;51.284;22.590;2024-01-11T16:00:15;99613.00;;;-2.72;86.33
84483;BME280;74703;51.284;22.590;2024-01-11T16:05:15;99619.06;;;-2.51;87.02
84483;BME280;74703;51.284;22.590;2024-01-11T16:10:16;99611.34;;;-2.64;87.19
84483;BME280;74703;51.284;22.590;2024-01-11T16:15:16;99639.47;;;-2.53;87.63
84483;BME280;74703;51.284;22.590;2024-01-11T16:20:17;99614.78;;;-2.60;88.03
84483;BME280;74703;51.284;22.590;2024-01-11T16:25:18;99618.28;;;-2.46;88.29
84483;BME280;74703;51.284;22.590;2024-01-11T16:30:20;99605.50;;;-2.52;88.09
84483;BME280;74703;51.284;22.590;2024-01-11T16:35:22;99593.63;;;-2.50;88.53
84483;BME280;74703;51.284;22.590;2024-01-11T16:40:23;99600.44;;;-2.46;88.14
84483;BME280;74703;51.284;22.590;2024-01-11T16:45:23;99591.00;;;-2.62;88.78
84483;BME280;74703;51.284;22.590;2024-01-11T16:50:24;99588.53;;;-2.50;88.88
84483;BME280;74703;51.284;22.590;2024-01-11T16:55:24;99614.13;;;-2.30;88.13
84483;BME280;74703;51.284;22.590;2024-01-11T17:00:25;99594.59;;;-2.31;88.25
84483;BME280;74703;51.284;22.590;2024-01-11T17:05:27;99616.78;;;-2.21;88.56
84483;BME280;74703;51.284;22.590;2024-01-11T17:10:27;99582.75;;;-2.26;88.26
84483;BME280;74703;51.284;22.590;2024-01-11T17:15:28;99608.34;;;-2.06;88.38
84483;BME280;74703;51.284;22.590;2024-01-11T17:20:30;99575.94;;;-2.25;88.10
84483;BME280;74703;51.284;22.590;2024-01-11T17:25:31;99602.38;;;-2.07;88.15
84483;BME280;74703;51.284;22.590;2024-01-11T17:30:31;99613.47;;;-2.01;88.18
84483;BME280;74703;51.284;22.590;2024-01-11T17:35:32;99614.41;;;-1.90;88.13
84483;BME280;74703;51.284;22.590;2024-01-11T17:40:32;99596.47;;;-2.01;87.71
84483;BME280;74703;51.284;22.590;2024-01-11T17:45:35;99592.28;;;-1.93;87.31
84483;BME280;74703;51.284;22.590;2024-01-11T17:50:37;99599.97;;;-1.82;87.38
84483;BME280;74703;51.284;22.590;2024-01-11T17:55:39;99597.47;;;-1.71;87.43
84483;BME280;74703;51.284;22.590;2024-01-11T18:00:40;99580.44;;;-1.74;87.10
84483;BME280;74703;51.284;22.590;2024-01-11T18:05:41;99610.25;;;-1.61;87.26
84483;BME280;74703;51.284;22.590;2024-01-11T18:10:42;99616.22;;;-1.63;87.45
84483;BME280;74703;51.284;22.590;2024-01-11T18:15:42;99594.13;;;-1.59;88.06
84483;BME280;74703;51.284;22.590;2024-01-11T18:20:43;99617.09;;;-1.49;88.25
84483;BME280;74703;51.284;22.590;2024-01-11T18:25:43;99618.88;;;-1.29;87.64
84483;BME280;74703;51.284;22.590;2024-01-11T18:30:44;99616.34;;;-1.25;87.40
84483;BME280;74703;51.284;22.590;2024-01-11T18:35:46;99616.34;;;-1.20;87.04
84483;BME280;74703;51.284;22.590;2024-01-11T18:40:47;99617.19;;;-1.18;87.14
84483;BME280;74703;51.284;22.590;2024-01-11T18:45:48;99626.53;;;-1.29;87.47
84483;BME280;74703;51.284;22.590;2024-01-11T18:50:49;99578.84;;;-1.46;87.15
84483;BME280;74703;51.284;22.590;2024-01-11T18:55:50;99633.41;;;-1.05;86.45
84483;BME280;74703;51.284;22.590;2024-01-11T19:00:57;99587.38;;;-1.31;86.53
84483;BME280;74703;51.284;22.590;2024-01-11T19:05:58;99589.97;;;-1.25;86.60
84483;BME280;74703;51.284;22.590;2024-01-11T19:10:59;99606.16;;;-1.17;86.94
84483;BME280;74703;51.284;22.590;2024-01-11T19:16:00;99580.59;;;-1.32;86.30
84483;BME280;74703;51.284;22.590;2024-01-11T19:21:01;99569.53;;;-1.25;85.97
84483;BME280;74703;51.284;22.590;2024-01-11T19:26:01;99595.09;;;-1.11;86.38
84483;BME280;74703;51.284;22.590;2024-01-11T19:31:03;99590.84;;;-1.06;86.21
84483;BME280;74703;51.284;22.590;2024-01-11T19:36:04;99586.56;;;-1.21;85.95
84483;BME280;74703;51.284;22.590;2024-01-11T19:41:05;99624.94;;;-0.97;86.47
84483;BME280;74703;51.284;22.590;2024-01-11T19:46:08;99606.19;;;-1.02;85.85
84483;BME280;74703;51.284;22.590;2024-01-11T19:51:10;99597.66;;;-1.08;86.21
84483;BME280;74703;51.284;22.590;2024-01-11T19:56:17;99653.03;;;-0.86;86.07
84483;BME280;74703;51.284;22.590;2024-01-11T20:01:18;99640.25;;;-0.94;85.63
84483;BME280;74703;51.284;22.590;2024-01-11T20:06:19;99659.84;;;-0.80;85.55
84483;BME280;74703;51.284;22.590;2024-01-11T20:11:19;99640.25;;;-0.83;85.11
84483;BME280;74703;51.284;22.590;2024-01-11T20:16:20;99670.94;;;-0.66;85.38
84483;BME280;74703;51.284;22.590;2024-01-11T20:21:21;99673.47;;;-0.83;85.36
84483;BME280;74703;51.284;22.590;2024-01-11T20:26:23;99687.94;;;-0.88;85.66
84483;BME280;74703;51.284;22.590;2024-01-11T20:31:24;99719.41;;;-1.03;85.21
84483;BME280;74703;51.284;22.590;2024-01-11T20:36:25;99718.50;;;-1.12;85.78
84483;BME280;74703;51.284;22.590;2024-01-11T20:41:25;99698.88;;;-1.26;86.01
84483;BME280;74703;51.284;22.590;2024-01-11T20:46:26;99726.16;;;-1.16;85.64
84483;BME280;74703;51.284;22.590;2024-01-11T20:51:26;99728.75;;;-1.03;85.29
84483;BME280;74703;51.284;22.590;2024-01-11T20:56:27;99744.13;;;-0.93;84.83
84483;BME280;74703;51.284;22.590;2024-01-11T21:01:30;99759.44;;;-0.99;84.29
84483;BME280;74703;51.284;22.590;2024-01-11T21:06:31;99773.13;;;-0.77;83.30
84483;BME280;74703;51.284;22.590;2024-01-11T21:11:32;99774.81;;;-0.80;82.07
84483;BME280;74703;51.284;22.590;2024-01-11T21:16:32;99773.09;;;-0.83;80.23
84483;BME280;74703;51.284;22.590;2024-01-11T21:21:39;99772.09;;;-1.22;80.50
84483;BME280;74703;51.284;22.590;2024-01-11T21:26:41;99764.38;;;-1.32;79.69
84483;BME280;74703;51.284;22.590;2024-01-11T21:31:42;99794.25;;;-1.13;80.33
84483;BME280;74703;51.284;22.590;2024-01-11T21:36:42;99799.31;;;-1.24;81.22
84483;BME280;74703;51.284;22.590;2024-01-11T21:41:43;99784.91;;;-1.06;79.93
84483;BME280;74703;51.284;22.590;2024-01-11T21:46:44;99787.44;;;-1.17;79.92
84483;BME280;74703;51.284;22.590;2024-01-11T21:51:45;99805.31;;;-1.17;80.02
84483;BME280;74703;51.284;22.590;2024-01-11T21:56:47;99798.34;;;-1.40;79.79
84483;BME280;74703;51.284;22.590;2024-01-11T22:01:47;99821.34;;;-1.40;78.56
84483;BME280;74703;51.284;22.590;2024-01-11T22:06:48;99834.88;;;-1.53;76.80
84483;BME280;74703;51.284;22.590;2024-01-11T22:11:49;99819.38;;;-1.73;75.84
84483;BME280;74703;51.284;22.590;2024-01-11T22:16:49;99849.22;;;-1.64;76.38
84483;BME280;74703;51.284;22.590;2024-01-11T22:21:50;99858.47;;;-1.80;76.70
84483;BME280;74703;51.284;22.590;2024-01-11T22:26:50;99846.47;;;-1.89;75.77
84483;BME280;74703;51.284;22.590;2024-01-11T22:31:51;99872.84;;;-1.90;74.11
84483;BME280;74703;51.284;22.590;2024-01-11T22:36:51;99884.63;;;-2.02;72.24
84483;BME280;74703;51.284;22.590;2024-01-11T22:41:52;99888.78;;;-2.11;70.80
84483;BME280;74703;51.284;22.590;2024-01-11T22:46:53;99871.59;;;-2.28;68.72
84483;BME280;74703;51.284;22.590;2024-01-11T22:51:53;99870.56;;;-2.44;68.28
84483;BME280;74703;51.284;22.590;2024-01-11T22:56:54;99865.31;;;-2.57;69.42
84483;BME280;74703;51.284;22.590;2024-01-11T23:01:56;99894.22;;;-2.56;70.10
84483;BME280;74703;51.284;22.590;2024-01-11T23:06:57;99914.44;;;-2.68;71.57
84483;BME280;74703;51.284;22.590;2024-01-11T23:11:58;99936.47;;;-2.70;71.00
84483;BME280;74703;51.284;22.590;2024-01-11T23:16:58;99913.34;;;-2.87;69.69
84483;BME280;74703;51.284;22.590;2024-01-11T23:21:59;99931.84;;;-2.97;69.66
84483;BME280;74703;51.284;22.590;2024-01-11T23:27:00;99944.56;;;-2.99;69.03
84483;BME280;74703;51.284;22.590;2024-01-11T23:32:00;99936.84;;;-3.05;69.14
84483;BME280;74703;51.284;22.590;2024-01-11T23:37:01;99960.69;;;-2.98;69.97
84483;BME280;74703;51.284;22.590;2024-01-11T23:42:03;99976.81;;;-2.98;70.20
84483;BME280;74703;51.284;22.590;2024-01-11T23:47:04;99970.69;;;-3.11;69.75
84483;BME280;74703;51.284;22.590;2024-01-11T23:52:05;99986.06;;;-3.05;69.02
84483;BME280;74703;51.284;22.590;2024-01-11T23:57:05;99988.38;;;-3.18;70.43
